Carnival Valor — H3VR — position and weather

sailwx.info

Track history (hours):
 
Tides and Currents Weather Stations Pressure Air Temp Water Temp Dewpoint Dewpoint Depression Visibility Wind Speed Wind Dir Waves Ship Positions

Carnival Valor

Last reported at 2017-Apr-29 13:01 UTC. Time now 2017-Apr-29 13:27 UTC.
Position N 20°33' W 086°60'.

Type: Ship. MMSI: 354298000.

Date/timePositionNaut miles runAvg speedWind from/ knotsBaromVisibWave heightAir tempDewpointWater temp
2017-Apr-29 13:01N 20°33' W 086°60'1015.1
2017-Apr-29 12:21N 20°41' W 086°54'1335.7
2017-Apr-29 12:00N 20°48' W 086°42'42217.6 130 / 401010.010.8 23.018.326.0
2017-Apr-28 12:00N 26°30' W 091°12'14818.4 180 / 401006.010.8 21.017.825.0
2017-Apr-28 03:57N 28°19' W 093°04'1218.9
2017-Apr-28 03:18N 28°26' W 093°15'618.9
2017-Apr-28 02:59N 28°30' W 093°21'2218.8
2017-Apr-28 01:49N 28°43' W 093°41'618.7
2017-Apr-28 01:28N 28°47' W 093°47'1618.7
2017-Apr-28 00:38N 28°56' W 094°02'318.5
2017-Apr-28 00:28N 28°57' W 094°04'1017.5
2017-Apr-27 23:55N 29°03' W 094°13'716.2
2017-Apr-27 23:30N 29°07' W 094°20'1216.1
2017-Apr-27 22:45N 29°13' W 094°32'515.3
2017-Apr-27 22:25N 29°16' W 094°36'512.2
2017-Apr-27 21:58N 29°20' W 094°41'511.6
2017-Apr-27 21:31N 29°20' W 094°47'1 1.5
2017-Apr-27 20:31N 29°19' W 094°48'0 0.0
2017-Apr-27 20:19N 29°19' W 094°48'0 0.0
2017-Apr-27 19:48N 29°19' W 094°48'0 0.0
2017-Apr-27 19:30N 29°19' W 094°48'0 0.0
2017-Apr-27 17:29N 29°19' W 094°48'0 0.0
2017-Apr-27 16:53N 29°19' W 094°48'0 0.0
2017-Apr-27 16:23N 29°19' W 094°48'0 0.0
2017-Apr-27 15:53N 29°19' W 094°48'0 0.0
2017-Apr-27 15:29N 29°19' W 094°48'0 0.0
2017-Apr-27 14:46N 29°19' W 094°48'0 0.0
2017-Apr-27 13:28N 29°19' W 094°48'0 0.0
2017-Apr-27 12:33N 29°19' W 094°48'0 0.0
2017-Apr-27 12:30N 29°19' W 094°48'1 2.6
2017-Apr-27 11:57N 29°20' W 094°47'33313.9
2017-Apr-26 12:00N 24°24' W 091°54'220 9.2 140 / 201006.010.8 22.022.026.0
2017-Apr-25 12:00N 21°42' W 089°12'14211.7 160 / 81009.010.8 22.018.926.0
2017-Apr-24 23:55N 20°36' W 086°58'513.3
2017-Apr-24 23:30N 20°31' W 087°00'2 4.4
2017-Apr-24 22:59N 20°29' W 086°59'0 0.0
2017-Apr-24 22:26N 20°29' W 086°59'0 0.0
2017-Apr-24 21:58N 20°29' W 086°59'0 0.0
2017-Apr-24 21:28N 20°29' W 086°59'0 0.0
2017-Apr-24 20:58N 20°29' W 086°59'0 0.0
2017-Apr-24 20:28N 20°29' W 086°59'0 0.0
2017-Apr-24 19:58N 20°29' W 086°59'0 0.0
2017-Apr-24 19:30N 20°29' W 086°59'0 0.0
2017-Apr-24 19:00N 20°29' W 086°59'0 0.0
2017-Apr-24 18:30N 20°29' W 086°59'0 0.0
2017-Apr-24 18:00N 20°29' W 086°59'0 0.0
2017-Apr-24 17:30N 20°29' W 086°59'0 0.0
2017-Apr-24 17:00N 20°29' W 086°59'0 0.0
2017-Apr-24 16:29N 20°29' W 086°59'0 0.0
2017-Apr-24 15:59N 20°29' W 086°59'0 0.0
2017-Apr-24 15:29N 20°29' W 086°59'0 0.0
2017-Apr-24 14:59N 20°29' W 086°59'0 0.0
2017-Apr-24 14:28N 20°29' W 086°59'0 0.3
2017-Apr-24 13:30N 20°29' W 086°59'4 8.5
2017-Apr-24 13:01N 20°33' W 086°60'611.3
2017-Apr-24 12:31N 20°38' W 086°56'917.4
2017-Apr-24 12:00N 20°42' W 086°48'   350 / 151010.010.8 22.018.926.0
2017-Apr-21 12:00N 24°18' W 091°48'212 8.8 090 / 201011.010.8 22.018.925.0
2017-Apr-20 12:00N 21°42' W 089°12'14211.6 050 / 101013.010.8 22.018.926.0
2017-Apr-19 23:47N 20°35' W 086°58'516.6
2017-Apr-19 23:30N 20°31' W 086°60'3 5.8
2017-Apr-19 23:00N 20°29' W 086°59'0 0.0
2017-Apr-19 22:27N 20°29' W 086°59'0 0.0
2017-Apr-19 22:00N 20°29' W 086°59'0 0.0
2017-Apr-19 21:30N 20°29' W 086°59'0 0.0
2017-Apr-19 21:00N 20°29' W 086°59'0 0.0
2017-Apr-19 20:29N 20°29' W 086°59'0 0.0
2017-Apr-19 19:59N 20°29' W 086°59'0 0.0
2017-Apr-19 19:23N 20°29' W 086°59'0 0.0
2017-Apr-19 18:59N 20°29' W 086°59'0 0.0
2017-Apr-19 18:29N 20°29' W 086°59'0 0.0
2017-Apr-19 17:58N 20°29' W 086°59'0 0.0
2017-Apr-19 17:28N 20°29' W 086°59'0 0.0
2017-Apr-19 16:58N 20°29' W 086°59'0 0.0
2017-Apr-19 16:28N 20°29' W 086°59'0 0.0
2017-Apr-19 15:57N 20°29' W 086°59'0 0.0
2017-Apr-19 15:30N 20°29' W 086°59'0 0.0
2017-Apr-19 15:00N 20°29' W 086°59'0 0.0
2017-Apr-19 14:29N 20°29' W 086°59'0 0.3
2017-Apr-19 13:30N 20°29' W 086°59'4 8.6
2017-Apr-19 13:01N 20°33' W 086°60'  
Track history (hours):
 
Tides and Currents Weather Stations Pressure Air Temp Water Temp Dewpoint Dewpoint Depression Visibility Wind Speed Wind Dir Waves Ship Positions

Carnival Valor

Last reported at 2017-Apr-29 13:01 UTC. Time now 2017-Apr-29 13:27 UTC.
Position N 20°33' W 086°60'.

Type: Ship. MMSI: 354298000.

Date/timePositionNaut miles runAvg speedWind from/ knotsBaromVisibWave heightAir tempDewpointWater temp
2017-Apr-29 13:01N 20°33' W 086°60'1015.1
2017-Apr-29 12:21N 20°41' W 086°54'1335.7
2017-Apr-29 12:00N 20°48' W 086°42'42217.6 130 / 401010.010.8 23.018.326.0
2017-Apr-28 12:00N 26°30' W 091°12'14818.4 180 / 401006.010.8 21.017.825.0
2017-Apr-28 03:57N 28°19' W 093°04'1218.9
2017-Apr-28 03:18N 28°26' W 093°15'618.9
2017-Apr-28 02:59N 28°30' W 093°21'2218.8
2017-Apr-28 01:49N 28°43' W 093°41'618.7
2017-Apr-28 01:28N 28°47' W 093°47'1618.7
2017-Apr-28 00:38N 28°56' W 094°02'318.5
2017-Apr-28 00:28N 28°57' W 094°04'1017.5
2017-Apr-27 23:55N 29°03' W 094°13'716.2
2017-Apr-27 23:30N 29°07' W 094°20'1216.1
2017-Apr-27 22:45N 29°13' W 094°32'515.3
2017-Apr-27 22:25N 29°16' W 094°36'512.2
2017-Apr-27 21:58N 29°20' W 094°41'511.6
2017-Apr-27 21:31N 29°20' W 094°47'1 1.5
2017-Apr-27 20:31N 29°19' W 094°48'0 0.0
2017-Apr-27 20:19N 29°19' W 094°48'0 0.0
2017-Apr-27 19:48N 29°19' W 094°48'0 0.0
2017-Apr-27 19:30N 29°19' W 094°48'0 0.0
2017-Apr-27 17:29N 29°19' W 094°48'0 0.0
2017-Apr-27 16:53N 29°19' W 094°48'0 0.0
2017-Apr-27 16:23N 29°19' W 094°48'0 0.0
2017-Apr-27 15:53N 29°19' W 094°48'0 0.0
2017-Apr-27 15:29N 29°19' W 094°48'0 0.0
2017-Apr-27 14:46N 29°19' W 094°48'0 0.0
2017-Apr-27 13:28N 29°19' W 094°48'0 0.0
2017-Apr-27 12:33N 29°19' W 094°48'0 0.0
2017-Apr-27 12:30N 29°19' W 094°48'1 2.6
2017-Apr-27 11:57N 29°20' W 094°47'33313.9
2017-Apr-26 12:00N 24°24' W 091°54'220 9.2 140 / 201006.010.8 22.022.026.0
2017-Apr-25 12:00N 21°42' W 089°12'14211.7 160 / 81009.010.8 22.018.926.0
2017-Apr-24 23:55N 20°36' W 086°58'513.3
2017-Apr-24 23:30N 20°31' W 087°00'2 4.4
2017-Apr-24 22:59N 20°29' W 086°59'0 0.0
2017-Apr-24 22:26N 20°29' W 086°59'0 0.0
2017-Apr-24 21:58N 20°29' W 086°59'0 0.0
2017-Apr-24 21:28N 20°29' W 086°59'0 0.0
2017-Apr-24 20:58N 20°29' W 086°59'0 0.0
2017-Apr-24 20:28N 20°29' W 086°59'0 0.0
2017-Apr-24 19:58N 20°29' W 086°59'0 0.0
2017-Apr-24 19:30N 20°29' W 086°59'0 0.0
2017-Apr-24 19:00N 20°29' W 086°59'0 0.0
2017-Apr-24 18:30N 20°29' W 086°59'0 0.0
2017-Apr-24 18:00N 20°29' W 086°59'0 0.0
2017-Apr-24 17:30N 20°29' W 086°59'0 0.0
2017-Apr-24 17:00N 20°29' W 086°59'0 0.0
2017-Apr-24 16:29N 20°29' W 086°59'0 0.0
2017-Apr-24 15:59N 20°29' W 086°59'0 0.0
2017-Apr-24 15:29N 20°29' W 086°59'0 0.0
2017-Apr-24 14:59N 20°29' W 086°59'0 0.0
2017-Apr-24 14:28N 20°29' W 086°59'0 0.3
2017-Apr-24 13:30N 20°29' W 086°59'4 8.5
2017-Apr-24 13:01N 20°33' W 086°60'611.3
2017-Apr-24 12:31N 20°38' W 086°56'917.4
2017-Apr-24 12:00N 20°42' W 086°48'   350 / 151010.010.8 22.018.926.0
2017-Apr-21 12:00N 24°18' W 091°48'212 8.8 090 / 201011.010.8 22.018.925.0
2017-Apr-20 12:00N 21°42' W 089°12'14211.6 050 / 101013.010.8 22.018.926.0
2017-Apr-19 23:47N 20°35' W 086°58'516.6
2017-Apr-19 23:30N 20°31' W 086°60'3 5.8
2017-Apr-19 23:00N 20°29' W 086°59'0 0.0
2017-Apr-19 22:27N 20°29' W 086°59'0 0.0
2017-Apr-19 22:00N 20°29' W 086°59'0 0.0
2017-Apr-19 21:30N 20°29' W 086°59'0 0.0
2017-Apr-19 21:00N 20°29' W 086°59'0 0.0
2017-Apr-19 20:29N 20°29' W 086°59'0 0.0
2017-Apr-19 19:59N 20°29' W 086°59'0 0.0
2017-Apr-19 19:23N 20°29' W 086°59'0 0.0
2017-Apr-19 18:59N 20°29' W 086°59'0 0.0
2017-Apr-19 18:29N 20°29' W 086°59'0 0.0
2017-Apr-19 17:58N 20°29' W 086°59'0 0.0
2017-Apr-19 17:28N 20°29' W 086°59'0 0.0
2017-Apr-19 16:58N 20°29' W 086°59'0 0.0
2017-Apr-19 16:28N 20°29' W 086°59'0 0.0
2017-Apr-19 15:57N 20°29' W 086°59'0 0.0
2017-Apr-19 15:30N 20°29' W 086°59'0 0.0
2017-Apr-19 15:00N 20°29' W 086°59'0 0.0
2017-Apr-19 14:29N 20°29' W 086°59'0 0.3
2017-Apr-19 13:30N 20°29' W 086°59'4 8.6
2017-Apr-19 13:01N 20°33' W 086°60'  

Dump ship's entire track history